sensor_id;sensor_type;location;lat;lon;timestamp;noise_LAeq;noise_LA_min;noise_LA_max;noise_LA01;noise_LA95
70077;Laerm;57448;51.490;5.436;2023-03-01T00:01:37;38.00;33.87;43.37;;
70077;Laerm;57448;51.490;5.436;2023-03-01T00:03:59;38.54;33.84;42.84;;
70077;Laerm;57448;51.490;5.436;2023-03-01T00:06:21;37.84;33.94;44.42;;
70077;Laerm;57448;51.490;5.436;2023-03-01T00:08:43;37.91;33.40;43.91;;
70077;Laerm;57448;51.490;5.436;2023-03-01T00:11:06;38.75;34.42;47.96;;
70077;Laerm;57448;51.490;5.436;2023-03-01T00:13:28;37.17;33.48;45.44;;
70077;Laerm;57448;51.490;5.436;2023-03-01T00:15:51;38.73;32.62;45.45;;
70077;Laerm;57448;51.490;5.436;2023-03-01T00:18:13;37.68;33.55;43.22;;
70077;Laerm;57448;51.490;5.436;2023-03-01T00:20:34;36.19;32.13;41.81;;
70077;Laerm;57448;51.490;5.436;2023-03-01T00:22:56;38.00;33.69;45.75;;
70077;Laerm;57448;51.490;5.436;2023-03-01T00:25:18;38.73;33.31;45.55;;
70077;Laerm;57448;51.490;5.436;2023-03-01T00:27:39;35.84;31.95;42.17;;
70077;Laerm;57448;51.490;5.436;2023-03-01T00:30:01;38.61;33.86;46.20;;
70077;Laerm;57448;51.490;5.436;2023-03-01T00:32:24;37.55;33.18;47.79;;
70077;Laerm;57448;51.490;5.436;2023-03-01T00:34:46;36.40;32.46;41.20;;
70077;Laerm;57448;51.490;5.436;2023-03-01T00:37:14;37.70;32.94;42.28;;
70077;Laerm;57448;51.490;5.436;2023-03-01T00:39:36;38.37;34.46;46.40;;
70077;Laerm;57448;51.490;5.436;2023-03-01T00:41:57;37.66;33.29;48.22;;
70077;Laerm;57448;51.490;5.436;2023-03-01T00:44:19;37.14;33.11;43.82;;
70077;Laerm;57448;51.490;5.436;2023-03-01T00:46:41;37.20;33.90;42.95;;
70077;Laerm;57448;51.490;5.436;2023-03-01T00:49:04;36.56;33.10;43.49;;
70077;Laerm;57448;51.490;5.436;2023-03-01T00:51:26;39.04;34.95;47.38;;
70077;Laerm;57448;51.490;5.436;2023-03-01T00:53:49;38.03;33.02;45.06;;
70077;Laerm;57448;51.490;5.436;2023-03-01T00:56:11;36.57;33.05;40.84;;
70077;Laerm;57448;51.490;5.436;2023-03-01T00:58:34;38.42;33.77;46.22;;
70077;Laerm;57448;51.490;5.436;2023-03-01T01:00:55;37.39;33.58;43.10;;
70077;Laerm;57448;51.490;5.436;2023-03-01T01:03:17;36.36;32.77;42.79;;
70077;Laerm;57448;51.490;5.436;2023-03-01T01:05:40;36.39;32.69;41.20;;
70077;Laerm;57448;51.490;5.436;2023-03-01T01:08:02;39.59;35.34;46.99;;
70077;Laerm;57448;51.490;5.436;2023-03-01T01:10:23;37.96;33.32;43.68;;
70077;Laerm;57448;51.490;5.436;2023-03-01T01:12:45;37.23;33.53;41.44;;
70077;Laerm;57448;51.490;5.436;2023-03-01T01:15:07;35.72;32.62;46.09;;
70077;Laerm;57448;51.490;5.436;2023-03-01T01:17:29;36.62;32.88;44.04;;
70077;Laerm;57448;51.490;5.436;2023-03-01T01:19:51;34.67;31.80;40.71;;
70077;Laerm;57448;51.490;5.436;2023-03-01T01:22:13;36.14;32.32;43.67;;
70077;Laerm;57448;51.490;5.436;2023-03-01T01:24:35;36.73;33.18;43.52;;
70077;Laerm;57448;51.490;5.436;2023-03-01T01:26:57;37.35;33.05;43.65;;
70077;Laerm;57448;51.490;5.436;2023-03-01T01:29:19;37.05;33.48;42.83;;
70077;Laerm;57448;51.490;5.436;2023-03-01T01:31:41;38.12;32.27;46.02;;
70077;Laerm;57448;51.490;5.436;2023-03-01T01:34:04;36.59;33.22;41.84;;
70077;Laerm;57448;51.490;5.436;2023-03-01T01:36:26;36.22;32.59;43.11;;
70077;Laerm;57448;51.490;5.436;2023-03-01T01:38:49;36.81;32.60;42.39;;
70077;Laerm;57448;51.490;5.436;2023-03-01T01:41:11;37.00;33.34;42.50;;
70077;Laerm;57448;51.490;5.436;2023-03-01T01:43:34;35.82;31.98;42.33;;
70077;Laerm;57448;51.490;5.436;2023-03-01T01:45:56;37.17;32.74;43.35;;
70077;Laerm;57448;51.490;5.436;2023-03-01T01:48:19;36.32;32.22;44.68;;
70077;Laerm;57448;51.490;5.436;2023-03-01T01:50:42;38.10;34.01;45.43;;
70077;Laerm;57448;51.490;5.436;2023-03-01T01:53:09;40.00;35.33;47.63;;
70077;Laerm;57448;51.490;5.436;2023-03-01T01:55:34;38.04;33.53;43.26;;
70077;Laerm;57448;51.490;5.436;2023-03-01T01:57:58;37.57;33.40;44.23;;
70077;Laerm;57448;51.490;5.436;2023-03-01T02:00:23;37.13;32.71;42.59;;
70077;Laerm;57448;51.490;5.436;2023-03-01T02:02:46;37.80;33.40;47.00;;
70077;Laerm;57448;51.490;5.436;2023-03-01T02:05:11;36.23;32.71;40.64;;
70077;Laerm;57448;51.490;5.436;2023-03-01T02:07:36;35.93;32.90;42.05;;
70077;Laerm;57448;51.490;5.436;2023-03-01T02:09:59;35.47;31.82;40.24;;
70077;Laerm;57448;51.490;5.436;2023-03-01T02:12:23;37.50;33.37;42.98;;
70077;Laerm;57448;51.490;5.436;2023-03-01T02:14:45;37.76;33.97;43.11;;
70077;Laerm;57448;51.490;5.436;2023-03-01T02:17:07;40.70;33.41;52.77;;
70077;Laerm;57448;51.490;5.436;2023-03-01T02:19:31;37.13;33.39;44.02;;
70077;Laerm;57448;51.490;5.436;2023-03-01T02:21:56;36.88;33.52;42.46;;
70077;Laerm;57448;51.490;5.436;2023-03-01T02:24:23;36.99;33.38;46.08;;
70077;Laerm;57448;51.490;5.436;2023-03-01T02:26:49;38.59;35.04;45.04;;
70077;Laerm;57448;51.490;5.436;2023-03-01T02:29:14;38.48;34.66;44.24;;
70077;Laerm;57448;51.490;5.436;2023-03-01T02:31:36;38.66;34.55;44.31;;
70077;Laerm;57448;51.490;5.436;2023-03-01T02:34:03;37.02;32.70;42.77;;
70077;Laerm;57448;51.490;5.436;2023-03-01T02:36:26;36.93;32.61;42.00;;
70077;Laerm;57448;51.490;5.436;2023-03-01T02:38:51;36.02;32.20;43.23;;
70077;Laerm;57448;51.490;5.436;2023-03-01T02:41:15;35.85;32.31;42.55;;
70077;Laerm;57448;51.490;5.436;2023-03-01T02:43:37;35.81;32.89;41.18;;
70077;Laerm;57448;51.490;5.436;2023-03-01T02:46:04;37.02;32.55;42.68;;
70077;Laerm;57448;51.490;5.436;2023-03-01T02:48:26;39.91;35.70;46.13;;
70077;Laerm;57448;51.490;5.436;2023-03-01T02:51:02;38.92;34.12;46.50;;
70077;Laerm;57448;51.490;5.436;2023-03-01T02:53:27;39.61;34.28;45.89;;
70077;Laerm;57448;51.490;5.436;2023-03-01T02:55:49;38.07;32.96;52.68;;
70077;Laerm;57448;51.490;5.436;2023-03-01T02:58:11;39.35;34.28;46.22;;
70077;Laerm;57448;51.490;5.436;2023-03-01T03:00:34;38.20;34.08;43.52;;
70077;Laerm;57448;51.490;5.436;2023-03-01T03:03:01;37.50;33.53;42.87;;
70077;Laerm;57448;51.490;5.436;2023-03-01T03:05:24;38.55;34.22;45.62;;
70077;Laerm;57448;51.490;5.436;2023-03-01T03:07:46;38.55;34.78;46.51;;
70077;Laerm;57448;51.490;5.436;2023-03-01T03:10:09;37.80;33.45;45.09;;
70077;Laerm;57448;51.490;5.436;2023-03-01T03:12:32;39.43;35.85;45.14;;
70077;Laerm;57448;51.490;5.436;2023-03-01T03:14:53;39.27;35.20;44.47;;
70077;Laerm;57448;51.490;5.436;2023-03-01T03:17:15;37.68;34.29;42.03;;
70077;Laerm;57448;51.490;5.436;2023-03-01T03:19:38;37.66;34.03;43.41;;
70077;Laerm;57448;51.490;5.436;2023-03-01T03:21:59;39.03;35.73;45.82;;
70077;Laerm;57448;51.490;5.436;2023-03-01T03:24:22;39.68;36.24;45.44;;
70077;Laerm;57448;51.490;5.436;2023-03-01T03:26:43;40.97;36.60;52.14;;
70077;Laerm;57448;51.490;5.436;2023-03-01T03:29:05;40.44;36.45;46.54;;
70077;Laerm;57448;51.490;5.436;2023-03-01T03:31:27;40.54;36.70;46.84;;
70077;Laerm;57448;51.490;5.436;2023-03-01T03:33:49;41.21;37.47;47.19;;
70077;Laerm;57448;51.490;5.436;2023-03-01T03:36:15;40.37;36.53;45.21;;
70077;Laerm;57448;51.490;5.436;2023-03-01T03:38:38;40.86;36.57;48.56;;
70077;Laerm;57448;51.490;5.436;2023-03-01T03:41:01;40.27;36.25;44.31;;
70077;Laerm;57448;51.490;5.436;2023-03-01T03:43:23;40.63;35.64;47.75;;
70077;Laerm;57448;51.490;5.436;2023-03-01T03:45:45;40.88;35.77;49.82;;
70077;Laerm;57448;51.490;5.436;2023-03-01T03:48:08;41.63;37.23;46.91;;
70077;Laerm;57448;51.490;5.436;2023-03-01T03:50:30;41.76;37.01;47.31;;
70077;Laerm;57448;51.490;5.436;2023-03-01T03:52:53;40.77;36.47;46.27;;
70077;Laerm;57448;51.490;5.436;2023-03-01T03:55:15;43.09;39.07;48.77;;
70077;Laerm;57448;51.490;5.436;2023-03-01T03:57:40;42.58;38.31;51.38;;
70077;Laerm;57448;51.490;5.436;2023-03-01T04:00:02;41.48;37.26;47.39;;
70077;Laerm;57448;51.490;5.436;2023-03-01T04:02:25;41.42;37.77;46.24;;
70077;Laerm;57448;51.490;5.436;2023-03-01T04:04:47;42.41;38.41;48.71;;
70077;Laerm;57448;51.490;5.436;2023-03-01T04:07:10;42.63;38.44;47.79;;
70077;Laerm;57448;51.490;5.436;2023-03-01T04:09:33;42.63;37.95;47.51;;
70077;Laerm;57448;51.490;5.436;2023-03-01T04:11:54;43.01;38.77;47.87;;
70077;Laerm;57448;51.490;5.436;2023-03-01T04:14:16;42.58;38.81;48.67;;
70077;Laerm;57448;51.490;5.436;2023-03-01T04:16:37;43.27;38.73;47.91;;
70077;Laerm;57448;51.490;5.436;2023-03-01T04:18:59;43.84;38.98;48.20;;
70077;Laerm;57448;51.490;5.436;2023-03-01T04:21:21;44.99;40.31;50.95;;
70077;Laerm;57448;51.490;5.436;2023-03-01T04:23:43;43.36;38.56;49.28;;
70077;Laerm;57448;51.490;5.436;2023-03-01T04:26:06;44.47;39.23;52.04;;
70077;Laerm;57448;51.490;5.436;2023-03-01T04:28:28;44.42;38.97;51.86;;
70077;Laerm;57448;51.490;5.436;2023-03-01T04:30:50;44.66;40.85;50.39;;
70077;Laerm;57448;51.490;5.436;2023-03-01T04:33:12;45.32;41.31;49.67;;
70077;Laerm;57448;51.490;5.436;2023-03-01T04:35:34;45.01;41.17;48.96;;
70077;Laerm;57448;51.490;5.436;2023-03-01T04:37:56;45.47;41.91;50.64;;
70077;Laerm;57448;51.490;5.436;2023-03-01T04:40:17;46.46;42.32;51.88;;
70077;Laerm;57448;51.490;5.436;2023-03-01T04:42:40;46.09;42.17;51.10;;
70077;Laerm;57448;51.490;5.436;2023-03-01T04:45:02;46.12;41.57;51.23;;
70077;Laerm;57448;51.490;5.436;2023-03-01T04:47:33;45.80;42.10;50.65;;
70077;Laerm;57448;51.490;5.436;2023-03-01T04:49:58;45.68;42.09;49.79;;
70077;Laerm;57448;51.490;5.436;2023-03-01T04:52:19;45.81;42.72;51.45;;
70077;Laerm;57448;51.490;5.436;2023-03-01T04:54:41;45.37;41.32;53.89;;
70077;Laerm;57448;51.490;5.436;2023-03-01T04:57:03;47.10;42.83;52.88;;
70077;Laerm;57448;51.490;5.436;2023-03-01T04:59:26;46.33;41.93;52.90;;
70077;Laerm;57448;51.490;5.436;2023-03-01T05:01:48;45.34;40.83;52.37;;
70077;Laerm;57448;51.490;5.436;2023-03-01T05:04:10;46.33;42.62;51.71;;
70077;Laerm;57448;51.490;5.436;2023-03-01T05:06:33;46.87;43.13;52.27;;
70077;Laerm;57448;51.490;5.436;2023-03-01T05:08:55;47.89;43.91;54.41;;
70077;Laerm;57448;51.490;5.436;2023-03-01T05:11:16;46.91;43.44;50.87;;
70077;Laerm;57448;51.490;5.436;2023-03-01T05:13:38;46.01;41.79;51.11;;
70077;Laerm;57448;51.490;5.436;2023-03-01T05:16:02;46.84;43.44;50.77;;
70077;Laerm;57448;51.490;5.436;2023-03-01T05:18:24;47.42;43.52;51.92;;
70077;Laerm;57448;51.490;5.436;2023-03-01T05:20:46;47.27;42.28;51.67;;
70077;Laerm;57448;51.490;5.436;2023-03-01T05:23:08;47.72;44.01;51.67;;
70077;Laerm;57448;51.490;5.436;2023-03-01T05:25:30;47.57;43.74;51.90;;
70077;Laerm;57448;51.490;5.436;2023-03-01T05:27:53;47.83;44.47;52.06;;
70077;Laerm;57448;51.490;5.436;2023-03-01T05:30:15;47.81;45.06;51.12;;
70077;Laerm;57448;51.490;5.436;2023-03-01T05:32:39;48.67;45.66;52.75;;
70077;Laerm;57448;51.490;5.436;2023-03-01T05:35:00;48.13;44.22;51.53;;
70077;Laerm;57448;51.490;5.436;2023-03-01T05:37:22;48.44;44.68;52.99;;
70077;Laerm;57448;51.490;5.436;2023-03-01T05:39:43;48.48;45.24;54.03;;
70077;Laerm;57448;51.490;5.436;2023-03-01T05:42:05;47.97;44.08;53.42;;
70077;Laerm;57448;51.490;5.436;2023-03-01T05:44:28;48.58;45.36;54.59;;
70077;Laerm;57448;51.490;5.436;2023-03-01T05:46:50;49.41;46.47;53.26;;
70077;Laerm;57448;51.490;5.436;2023-03-01T05:49:13;48.74;44.27;53.90;;
70077;Laerm;57448;51.490;5.436;2023-03-01T05:51:35;48.49;44.65;52.35;;
70077;Laerm;57448;51.490;5.436;2023-03-01T05:53:57;48.72;45.21;57.42;;
70077;Laerm;57448;51.490;5.436;2023-03-01T05:56:18;49.81;44.51;64.86;;
70077;Laerm;57448;51.490;5.436;2023-03-01T05:58:42;48.95;44.66;66.92;;
70077;Laerm;57448;51.490;5.436;2023-03-01T06:01:04;49.81;44.19;65.87;;
70077;Laerm;57448;51.490;5.436;2023-03-01T06:03:25;51.71;44.55;67.24;;
70077;Laerm;57448;51.490;5.436;2023-03-01T06:05:48;51.45;44.56;69.61;;
70077;Laerm;57448;51.490;5.436;2023-03-01T06:08:10;62.63;46.39;75.92;;
70077;Laerm;57448;51.490;5.436;2023-03-01T06:10:32;49.32;45.70;58.44;;
70077;Laerm;57448;51.490;5.436;2023-03-01T06:12:54;48.97;45.74;58.08;;
70077;Laerm;57448;51.490;5.436;2023-03-01T06:15:16;60.72;45.91;74.05;;
70077;Laerm;57448;51.490;5.436;2023-03-01T06:17:38;56.38;45.89;73.11;;
70077;Laerm;57448;51.490;5.436;2023-03-01T06:20:00;61.78;45.88;73.74;;
70077;Laerm;57448;51.490;5.436;2023-03-01T06:22:23;49.92;45.67;56.58;;
70077;Laerm;57448;51.490;5.436;2023-03-01T06:24:45;49.17;45.48;55.98;;
70077;Laerm;57448;51.490;5.436;2023-03-01T06:27:07;49.51;46.10;61.08;;
70077;Laerm;57448;51.490;5.436;2023-03-01T06:29:29;49.49;45.53;64.05;;
70077;Laerm;57448;51.490;5.436;2023-03-01T06:31:50;48.62;45.21;58.86;;
70077;Laerm;57448;51.490;5.436;2023-03-01T06:34:12;48.23;45.20;51.92;;
70077;Laerm;57448;51.490;5.436;2023-03-01T06:36:34;49.62;44.85;67.83;;
70077;Laerm;57448;51.490;5.436;2023-03-01T06:38:57;49.04;45.02;58.29;;
70077;Laerm;57448;51.490;5.436;2023-03-01T06:41:19;61.03;46.23;72.76;;
70077;Laerm;57448;51.490;5.436;2023-03-01T06:43:40;49.32;45.91;60.70;;
70077;Laerm;57448;51.490;5.436;2023-03-01T06:46:03;49.49;45.43;66.98;;
70077;Laerm;57448;51.490;5.436;2023-03-01T06:48:25;48.47;45.54;60.15;;
70077;Laerm;57448;51.490;5.436;2023-03-01T06:50:47;49.13;45.47;61.65;;
70077;Laerm;57448;51.490;5.436;2023-03-01T06:53:08;49.06;45.70;56.62;;
70077;Laerm;57448;51.490;5.436;2023-03-01T06:55:31;50.66;45.99;67.39;;
70077;Laerm;57448;51.490;5.436;2023-03-01T06:57:54;49.48;45.71;70.14;;
70077;Laerm;57448;51.490;5.436;2023-03-01T07:00:16;63.34;45.73;77.09;;
70077;Laerm;57448;51.490;5.436;2023-03-01T07:02:37;49.47;45.96;60.14;;
70077;Laerm;57448;51.490;5.436;2023-03-01T07:04:59;50.62;45.17;64.88;;
70077;Laerm;57448;51.490;5.436;2023-03-01T07:07:21;48.84;45.59;58.70;;
70077;Laerm;57448;51.490;5.436;2023-03-01T07:09:43;49.55;45.38;66.73;;
70077;Laerm;57448;51.490;5.436;2023-03-01T07:12:06;49.15;45.24;64.37;;
70077;Laerm;57448;51.490;5.436;2023-03-01T07:14:28;51.62;46.34;70.98;;
70077;Laerm;57448;51.490;5.436;2023-03-01T07:16:50;49.20;44.88;61.72;;
70077;Laerm;57448;51.490;5.436;2023-03-01T07:19:11;62.98;45.88;77.26;;
70077;Laerm;57448;51.490;5.436;2023-03-01T07:21:33;49.89;45.39;65.38;;
70077;Laerm;57448;51.490;5.436;2023-03-01T07:23:54;49.75;45.15;66.88;;
70077;Laerm;57448;51.490;5.436;2023-03-01T07:26:16;52.06;45.74;71.36;;
70077;Laerm;57448;51.490;5.436;2023-03-01T07:28:39;48.32;44.94;57.59;;
70077;Laerm;57448;51.490;5.436;2023-03-01T07:31:01;50.13;44.83;65.67;;
70077;Laerm;57448;51.490;5.436;2023-03-01T07:33:23;48.53;45.25;52.45;;
70077;Laerm;57448;51.490;5.436;2023-03-01T07:35:45;48.45;44.23;56.40;;
70077;Laerm;57448;51.490;5.436;2023-03-01T07:38:07;56.20;45.55;76.51;;
70077;Laerm;57448;51.490;5.436;2023-03-01T07:40:28;53.53;44.54;73.26;;
70077;Laerm;57448;51.490;5.436;2023-03-01T07:42:54;50.57;44.99;68.02;;
70077;Laerm;57448;51.490;5.436;2023-03-01T07:45:17;50.45;45.20;66.67;;
70077;Laerm;57448;51.490;5.436;2023-03-01T07:47:37;49.38;44.79;62.59;;
70077;Laerm;57448;51.490;5.436;2023-03-01T07:49:58;50.15;45.37;69.71;;
70077;Laerm;57448;51.490;5.436;2023-03-01T07:52:18;49.03;45.38;60.88;;
70077;Laerm;57448;51.490;5.436;2023-03-01T07:54:38;49.53;43.88;65.35;;
70077;Laerm;57448;51.490;5.436;2023-03-01T07:56:58;46.63;42.83;55.35;;
70077;Laerm;57448;51.490;5.436;2023-03-01T07:59:18;46.21;42.55;51.50;;
70077;Laerm;57448;51.490;5.436;2023-03-01T08:01:39;46.11;42.77;52.10;;
70077;Laerm;57448;51.490;5.436;2023-03-01T08:03:59;45.76;42.29;58.96;;
70077;Laerm;57448;51.490;5.436;2023-03-01T08:06:20;46.53;43.04;52.04;;
70077;Laerm;57448;51.490;5.436;2023-03-01T08:08:40;45.72;42.40;50.53;;
70077;Laerm;57448;51.490;5.436;2023-03-01T08:11:01;45.62;42.42;50.35;;
70077;Laerm;57448;51.490;5.436;2023-03-01T08:13:21;46.99;41.57;56.60;;
70077;Laerm;57448;51.490;5.436;2023-03-01T08:15:41;45.33;41.85;52.17;;
70077;Laerm;57448;51.490;5.436;2023-03-01T08:18:02;45.41;41.66;56.51;;
70077;Laerm;57448;51.490;5.436;2023-03-01T08:20:22;49.62;41.26;67.92;;
70077;Laerm;57448;51.490;5.436;2023-03-01T08:22:42;46.53;42.20;64.01;;
70077;Laerm;57448;51.490;5.436;2023-03-01T08:25:02;46.13;41.98;62.14;;
70077;Laerm;57448;51.490;5.436;2023-03-01T08:27:22;46.67;42.05;67.16;;
70077;Laerm;57448;51.490;5.436;2023-03-01T08:29:42;46.47;41.69;58.51;;
70077;Laerm;57448;51.490;5.436;2023-03-01T08:32:02;51.61;42.14;72.05;;
70077;Laerm;57448;51.490;5.436;2023-03-01T08:34:24;47.73;41.46;61.55;;
70077;Laerm;57448;51.490;5.436;2023-03-01T08:36:44;45.80;41.49;62.63;;
70077;Laerm;57448;51.490;5.436;2023-03-01T08:39:05;56.20;41.35;71.26;;
70077;Laerm;57448;51.490;5.436;2023-03-01T08:41:26;44.20;39.90;60.76;;
70077;Laerm;57448;51.490;5.436;2023-03-01T08:43:46;45.08;39.82;61.90;;
70077;Laerm;57448;51.490;5.436;2023-03-01T08:46:06;47.15;40.39;63.01;;
70077;Laerm;57448;51.490;5.436;2023-03-01T08:48:28;45.70;38.44;65.00;;
70077;Laerm;57448;51.490;5.436;2023-03-01T08:50:51;48.99;38.88;73.28;;
70077;Laerm;57448;51.490;5.436;2023-03-01T08:53:13;60.48;38.61;78.00;;
70077;Laerm;57448;51.490;5.436;2023-03-01T08:55:34;59.05;38.61;75.99;;
70077;Laerm;57448;51.490;5.436;2023-03-01T08:57:56;50.80;39.99;64.47;;
70077;Laerm;57448;51.490;5.436;2023-03-01T09:00:19;46.24;39.07;65.73;;
70077;Laerm;57448;51.490;5.436;2023-03-01T09:02:41;45.34;38.84;63.17;;
70077;Laerm;57448;51.490;5.436;2023-03-01T09:05:03;45.06;38.33;60.73;;
70077;Laerm;57448;51.490;5.436;2023-03-01T09:07:27;63.09;40.04;79.85;;
70077;Laerm;57448;51.490;5.436;2023-03-01T09:09:49;51.51;40.01;72.23;;
70077;Laerm;57448;51.490;5.436;2023-03-01T09:12:13;42.95;38.37;62.16;;
70077;Laerm;57448;51.490;5.436;2023-03-01T09:14:33;43.11;38.77;58.75;;
70077;Laerm;57448;51.490;5.436;2023-03-01T09:16:55;42.89;39.09;55.96;;
70077;Laerm;57448;51.490;5.436;2023-03-01T09:19:15;43.28;38.76;56.38;;
70077;Laerm;57448;51.490;5.436;2023-03-01T09:21:35;45.56;39.82;66.31;;
70077;Laerm;57448;51.490;5.436;2023-03-01T09:23:56;44.34;39.30;61.22;;
70077;Laerm;57448;51.490;5.436;2023-03-01T09:26:17;63.00;38.22;78.11;;
70077;Laerm;57448;51.490;5.436;2023-03-01T09:28:38;45.54;38.56;64.44;;
70077;Laerm;57448;51.490;5.436;2023-03-01T09:30:59;43.68;39.08;64.47;;
70077;Laerm;57448;51.490;5.436;2023-03-01T09:33:19;42.88;38.60;49.34;;
70077;Laerm;57448;51.490;5.436;2023-03-01T09:35:39;43.57;38.68;54.56;;
70077;Laerm;57448;51.490;5.436;2023-03-01T09:38:04;43.61;39.17;58.71;;
70077;Laerm;57448;51.490;5.436;2023-03-01T09:40:25;45.11;39.50;56.05;;
70077;Laerm;57448;51.490;5.436;2023-03-01T09:42:47;45.33;40.00;62.87;;
70077;Laerm;57448;51.490;5.436;2023-03-01T09:45:10;43.86;40.03;57.85;;
70077;Laerm;57448;51.490;5.436;2023-03-01T09:47:32;44.86;40.28;68.34;;
70077;Laerm;57448;51.490;5.436;2023-03-01T09:49:56;45.77;39.77;65.06;;
70077;Laerm;57448;51.490;5.436;2023-03-01T09:52:20;63.35;40.57;80.24;;
70077;Laerm;57448;51.490;5.436;2023-03-01T09:54:43;54.81;39.83;72.99;;
70077;Laerm;57448;51.490;5.436;2023-03-01T09:57:11;45.25;38.79;65.14;;
70077;Laerm;57448;51.490;5.436;2023-03-01T09:59:36;45.46;39.26;65.51;;
70077;Laerm;57448;51.490;5.436;2023-03-01T10:02:00;48.09;38.98;68.96;;
70077;Laerm;57448;51.490;5.436;2023-03-01T10:04:26;47.31;39.76;71.34;;
70077;Laerm;57448;51.490;5.436;2023-03-01T10:06:51;49.36;40.46;75.81;;
70077;Laerm;57448;51.490;5.436;2023-03-01T10:09:12;42.51;38.61;55.62;;
70077;Laerm;57448;51.490;5.436;2023-03-01T10:11:35;42.82;38.86;52.97;;
70077;Laerm;57448;51.490;5.436;2023-03-01T10:14:00;49.18;39.53;76.59;;
70077;Laerm;57448;51.490;5.436;2023-03-01T10:16:23;43.47;38.86;60.46;;
70077;Laerm;57448;51.490;5.436;2023-03-01T10:18:46;51.88;38.99;69.31;;
70077;Laerm;57448;51.490;5.436;2023-03-01T10:21:13;52.70;40.43;69.58;;
70077;Laerm;57448;51.490;5.436;2023-03-01T10:23:34;43.03;39.06;58.52;;
70077;Laerm;57448;51.490;5.436;2023-03-01T10:25:59;59.93;39.12;79.38;;
70077;Laerm;57448;51.490;5.436;2023-03-01T10:28:25;47.15;38.31;63.29;;
70077;Laerm;57448;51.490;5.436;2023-03-01T10:30:47;46.96;39.03;66.41;;
70077;Laerm;57448;51.490;5.436;2023-03-01T10:33:08;48.29;39.49;64.22;;
70077;Laerm;57448;51.490;5.436;2023-03-01T10:35:32;42.82;38.89;55.79;;
70077;Laerm;57448;51.490;5.436;2023-03-01T10:37:56;51.27;39.36;74.93;;
70077;Laerm;57448;51.490;5.436;2023-03-01T10:40:17;51.09;39.89;77.91;;
70077;Laerm;57448;51.490;5.436;2023-03-01T10:42:38;49.08;39.52;72.07;;
70077;Laerm;57448;51.490;5.436;2023-03-01T10:45:09;62.69;39.56;80.44;;
70077;Laerm;57448;51.490;5.436;2023-03-01T10:47:35;54.60;39.46;77.22;;
70077;Laerm;57448;51.490;5.436;2023-03-01T10:49:59;47.88;39.38;70.74;;
70077;Laerm;57448;51.490;5.436;2023-03-01T10:52:19;47.59;39.48;71.08;;
70077;Laerm;57448;51.490;5.436;2023-03-01T10:54:40;51.76;39.31;71.74;;
70077;Laerm;57448;51.490;5.436;2023-03-01T10:57:01;56.15;39.55;77.23;;
70077;Laerm;57448;51.490;5.436;2023-03-01T10:59:28;54.25;39.27;81.88;;
70077;Laerm;57448;51.490;5.436;2023-03-01T11:01:49;62.43;40.46;76.82;;
70077;Laerm;57448;51.490;5.436;2023-03-01T11:04:22;54.35;38.48;72.54;;
70077;Laerm;57448;51.490;5.436;2023-03-01T11:06:42;46.05;38.39;63.99;;
70077;Laerm;57448;51.490;5.436;2023-03-01T11:09:12;47.10;39.12;68.69;;
70077;Laerm;57448;51.490;5.436;2023-03-01T11:11:33;57.91;38.33;76.30;;
70077;Laerm;57448;51.490;5.436;2023-03-01T11:13:55;55.96;38.51;73.47;;
70077;Laerm;57448;51.490;5.436;2023-03-01T11:16:15;43.43;38.76;66.47;;
70077;Laerm;57448;51.490;5.436;2023-03-01T11:18:42;44.36;38.32;61.22;;
70077;Laerm;57448;51.490;5.436;2023-03-01T11:21:03;43.41;38.53;59.92;;
70077;Laerm;57448;51.490;5.436;2023-03-01T11:23:25;44.25;39.41;59.13;;
70077;Laerm;57448;51.490;5.436;2023-03-01T11:25:48;49.09;39.71;67.79;;
70077;Laerm;57448;51.490;5.436;2023-03-01T11:28:10;49.71;39.60;72.11;;
70077;Laerm;57448;51.490;5.436;2023-03-01T11:30:34;50.59;39.69;71.17;;
70077;Laerm;57448;51.490;5.436;2023-03-01T11:33:04;44.81;37.15;64.49;;
70077;Laerm;57448;51.490;5.436;2023-03-01T11:35:26;41.72;38.23;51.34;;
70077;Laerm;57448;51.490;5.436;2023-03-01T11:37:53;42.80;38.27;55.46;;
70077;Laerm;57448;51.490;5.436;2023-03-01T11:40:17;42.33;37.57;54.11;;
70077;Laerm;57448;51.490;5.436;2023-03-01T11:42:44;47.17;38.95;68.35;;
70077;Laerm;57448;51.490;5.436;2023-03-01T11:45:08;43.84;39.11;50.26;;
70077;Laerm;57448;51.490;5.436;2023-03-01T11:47:32;44.72;39.76;53.67;;
70077;Laerm;57448;51.490;5.436;2023-03-01T11:50:07;44.06;38.74;56.95;;
70077;Laerm;57448;51.490;5.436;2023-03-01T11:52:34;49.06;37.85;67.13;;
70077;Laerm;57448;51.490;5.436;2023-03-01T11:55:00;46.16;38.06;62.70;;
70077;Laerm;57448;51.490;5.436;2023-03-01T11:57:33;43.47;37.13;69.81;;
70077;Laerm;57448;51.490;5.436;2023-03-01T12:00:02;43.55;37.69;62.70;;
70077;Laerm;57448;51.490;5.436;2023-03-01T12:02:29;44.48;39.37;65.00;;
70077;Laerm;57448;51.490;5.436;2023-03-01T12:05:04;47.36;39.79;59.20;;
70077;Laerm;57448;51.490;5.436;2023-03-01T12:07:36;54.35;39.86;73.19;;
70077;Laerm;57448;51.490;5.436;2023-03-01T12:10:04;45.16;39.14;55.79;;
70077;Laerm;57448;51.490;5.436;2023-03-01T12:12:36;41.17;37.23;54.36;;
70077;Laerm;57448;51.490;5.436;2023-03-01T12:15:06;41.53;37.87;53.25;;
70077;Laerm;57448;51.490;5.436;2023-03-01T12:20:17;44.46;38.87;56.06;;
70077;Laerm;57448;51.490;5.436;2023-03-01T12:22:40;43.21;39.06;53.33;;
70077;Laerm;57448;51.490;5.436;2023-03-01T12:25:23;41.11;37.31;50.36;;
70077;Laerm;57448;51.490;5.436;2023-03-01T12:28:00;41.13;37.39;58.31;;
70077;Laerm;57448;51.490;5.436;2023-03-01T12:30:27;41.69;38.57;48.50;;
70077;Laerm;57448;51.490;5.436;2023-03-01T12:32:56;43.95;39.49;54.59;;
70077;Laerm;57448;51.490;5.436;2023-03-01T12:35:27;45.48;39.13;61.28;;
70077;Laerm;57448;51.490;5.436;2023-03-01T12:37:54;44.87;38.75;70.36;;
70077;Laerm;57448;51.490;5.436;2023-03-01T12:40:27;43.70;39.12;61.00;;
70077;Laerm;57448;51.490;5.436;2023-03-01T12:42:54;50.92;38.38;69.61;;
70077;Laerm;57448;51.490;5.436;2023-03-01T12:45:32;43.85;38.69;62.30;;
70077;Laerm;57448;51.490;5.436;2023-03-01T12:48:03;44.78;38.31;63.22;;
70077;Laerm;57448;51.490;5.436;2023-03-01T12:50:34;49.91;38.68;73.62;;
70077;Laerm;57448;51.490;5.436;2023-03-01T12:52:58;55.72;40.06;73.80;;
70077;Laerm;57448;51.490;5.436;2023-03-01T12:55:26;43.27;39.80;50.84;;
70077;Laerm;57448;51.490;5.436;2023-03-01T12:57:51;42.48;38.91;58.01;;
70077;Laerm;57448;51.490;5.436;2023-03-01T13:00:19;43.72;38.88;52.51;;
70077;Laerm;57448;51.490;5.436;2023-03-01T13:02:45;50.52;39.48;73.84;;
70077;Laerm;57448;51.490;5.436;2023-03-01T13:05:20;51.40;40.76;70.90;;
70077;Laerm;57448;51.490;5.436;2023-03-01T13:07:48;60.50;41.27;80.84;;
70077;Laerm;57448;51.490;5.436;2023-03-01T13:10:16;44.59;40.15;56.35;;
70077;Laerm;57448;51.490;5.436;2023-03-01T13:12:46;43.21;39.13;54.20;;
70077;Laerm;57448;51.490;5.436;2023-03-01T13:17:45;45.56;40.06;61.59;;
70077;Laerm;57448;51.490;5.436;2023-03-01T13:20:11;45.45;40.99;60.79;;
70077;Laerm;57448;51.490;5.436;2023-03-01T13:22:33;58.73;40.76;77.47;;
70077;Laerm;57448;51.490;5.436;2023-03-01T13:25:00;45.12;40.49;55.64;;
70077;Laerm;57448;51.490;5.436;2023-03-01T13:27:22;62.14;40.67;79.23;;